createdAt,value
2023-07-03T00:00:52.201Z,99667.88
2023-07-03T00:05:54.008Z,99675.66
2023-07-03T00:11:02.654Z,99664.50
2023-07-03T00:16:05.102Z,99662.97
2023-07-03T00:21:06.864Z,99662.88
2023-07-03T00:26:08.494Z,99671.81
2023-07-03T00:31:10.172Z,99661.31
2023-07-03T00:36:11.837Z,99655.97
2023-07-03T00:41:13.542Z,99651.44
2023-07-03T00:46:15.285Z,99658.22
2023-07-03T00:51:17.321Z,99658.16
2023-07-03T00:56:19.800Z,99661.25
2023-07-03T01:01:39.732Z,99654.94
2023-07-03T01:07:06.773Z,99654.16
2023-07-03T01:12:08.931Z,99651.66
2023-07-03T01:17:11.044Z,99653.34
2023-07-03T01:22:32.449Z,99643.31
2023-07-03T01:27:36.641Z,99632.75
2023-07-03T01:32:40.502Z,99623.66
2023-07-03T01:37:47.892Z,99608.66
2023-07-03T01:42:49.560Z,99602.88
2023-07-03T01:47:51.267Z,99617.28
2023-07-03T01:53:03.508Z,99610.41
2023-07-03T01:58:18.922Z,99597.28
2023-07-03T02:03:26.007Z,99593.34
2023-07-03T02:08:28.801Z,99592.16
2023-07-03T02:13:30.441Z,99586.41
2023-07-03T02:18:35.268Z,99588.69
2023-07-03T02:23:37.163Z,99588.81
2023-07-03T02:28:38.891Z,99589.81
2023-07-03T02:33:40.955Z,99595.78
2023-07-03T02:38:42.571Z,99589.69
2023-07-03T02:43:44.303Z,99602.03
2023-07-03T02:48:46.631Z,99587.59
2023-07-03T02:53:48.692Z,99583.66
2023-07-03T02:58:51.752Z,99577.94
2023-07-03T03:03:59.788Z,99582.22
2023-07-03T03:09:02.091Z,99574.06
2023-07-03T03:14:06.989Z,99574.91
2023-07-03T03:19:09.685Z,99582.38
2023-07-03T03:24:11.385Z,99574.47
2023-07-03T03:29:13.009Z,99582.38
2023-07-03T03:34:16.576Z,99575.31
2023-07-03T03:39:18.235Z,99574.16
2023-07-03T03:44:20.223Z,99576.34
2023-07-03T03:49:23.099Z,99584.56
2023-07-03T03:54:27.515Z,99575.06
2023-07-03T03:59:29.473Z,99585.91
2023-07-03T04:04:33.408Z,99573.69
2023-07-03T04:09:35.158Z,99579.97
2023-07-03T04:14:39.126Z,99577.47
2023-07-03T04:19:40.823Z,99582.47
2023-07-03T04:24:42.434Z,99577.31
2023-07-03T04:29:44.125Z,99578.25
2023-07-03T04:34:45.751Z,99590.78
2023-07-03T04:39:47.398Z,99583.63
2023-07-03T04:44:50.094Z,99585.22
2023-07-03T04:49:56.418Z,99589.59
2023-07-03T04:54:58.170Z,99585.22
2023-07-03T05:00:01.650Z,99600.75
2023-07-03T05:05:03.401Z,99600.41
2023-07-03T05:10:06.627Z,99600.59
2023-07-03T05:15:09.622Z,99591.44
2023-07-03T05:20:15.981Z,99602.63
2023-07-03T05:25:17.882Z,99603.94
2023-07-03T05:30:19.650Z,99599.72
2023-07-03T05:35:21.382Z,99611.06
2023-07-03T05:40:23.218Z,99607.38
2023-07-03T05:45:25.175Z,99613.09
2023-07-03T05:50:26.775Z,99614.16
2023-07-03T05:55:28.381Z,99613.91
2023-07-03T06:00:32.056Z,99630.47
2023-07-03T06:05:33.779Z,99633.78
2023-07-03T06:10:35.462Z,99638.13
2023-07-03T06:15:37.164Z,99650.25
2023-07-03T06:20:39.119Z,99658.19
2023-07-03T06:25:41.465Z,99660.78
2023-07-03T06:30:51.343Z,99661.06
2023-07-03T06:35:53.391Z,99661.50
2023-07-03T06:41:01.560Z,99665.06
2023-07-03T06:46:03.187Z,99661.22
2023-07-03T06:51:06.614Z,99661.13
2023-07-03T06:56:09.139Z,99659.84
2023-07-03T07:01:13.493Z,99667.47
2023-07-03T07:06:22.541Z,99660.25
2023-07-03T07:11:29.531Z,99649.41
2023-07-03T07:16:35.960Z,99671.53
2023-07-03T07:21:39.566Z,99661.91
2023-07-03T07:26:41.338Z,99662.25
2023-07-03T07:31:43.220Z,99660.03
2023-07-03T07:36:45.802Z,99665.88
2023-07-03T07:41:47.927Z,99662.03
2023-07-03T07:46:49.591Z,99659.53
2023-07-03T07:51:51.399Z,99662.84
2023-07-03T07:56:52.997Z,99660.88
2023-07-03T08:01:54.626Z,99662.84
2023-07-03T08:06:56.281Z,99664.34
2023-07-03T08:11:57.996Z,99669.56
2023-07-03T08:16:59.754Z,99668.31
2023-07-03T08:22:01.437Z,99670.97
2023-07-03T08:27:03.126Z,99675.94
2023-07-03T08:32:10.365Z,99680.38
2023-07-03T08:37:12.091Z,99676.28
2023-07-03T08:42:24.979Z,99677.06
2023-07-03T08:47:29.299Z,99667.56
2023-07-03T08:52:46.334Z,99687.00
2023-07-03T08:57:47.994Z,99684.63
2023-07-03T09:03:09.105Z,99676.19
2023-07-03T09:08:21.466Z,99677.72
2023-07-03T09:13:33.946Z,99671.97
2023-07-03T09:18:38.886Z,99691.75
2023-07-03T09:23:54.968Z,99670.91
2023-07-03T09:28:59.445Z,99674.28
2023-07-03T09:34:01.085Z,99674.94
2023-07-03T09:39:08.389Z,99672.28
2023-07-03T09:44:14.145Z,99678.06
2023-07-03T09:49:24.077Z,99666.16
2023-07-03T09:54:31.097Z,99666.69
2023-07-03T09:59:33.012Z,99688.84
2023-07-03T10:15:00.828Z,99677.75
2023-07-03T10:20:05.950Z,99676.91
2023-07-03T10:25:10.882Z,99673.88
2023-07-03T10:30:16.548Z,99687.44
2023-07-03T10:35:25.853Z,99674.75
2023-07-03T10:41:00.721Z,99682.72
2023-07-03T10:46:03.847Z,99676.09
2023-07-03T10:51:14.938Z,99689.34
2023-07-03T10:56:44.485Z,99686.03
2023-07-03T11:02:13.634Z,99683.22
2023-07-03T11:07:20.637Z,99683.22
2023-07-03T11:12:40.454Z,99680.59
2023-07-03T11:23:29.374Z,99687.88
2023-07-03T11:28:37.072Z,99667.00
2023-07-03T11:44:35.196Z,99670.81
2023-07-03T11:49:40.531Z,99672.63
2023-07-03T11:54:43.240Z,99665.53
2023-07-03T11:59:44.922Z,99692.84
2023-07-03T12:04:49.553Z,99698.16
2023-07-03T12:09:51.931Z,99702.97
2023-07-03T12:14:58.779Z,99705.22
2023-07-03T12:20:28.919Z,99693.28
2023-07-03T12:25:30.839Z,99694.91
2023-07-03T12:30:32.517Z,99685.81
2023-07-03T12:35:36.478Z,99690.97
2023-07-03T12:40:45.972Z,99683.97
2023-07-03T12:45:52.688Z,99685.63
2023-07-03T12:50:57.595Z,99685.78
2023-07-03T12:56:04.010Z,99686.69
2023-07-03T13:01:07.481Z,99686.75
2023-07-03T13:06:29.072Z,99686.59
2023-07-03T13:11:45.082Z,99672.44
2023-07-03T13:16:49.686Z,99672.69
2023-07-03T13:21:52.062Z,99677.63
2023-07-03T13:26:54.651Z,99682.56
2023-07-03T13:32:20.102Z,99680.97
2023-07-03T13:37:26.728Z,99679.31
2023-07-03T13:42:28.348Z,99676.50
2023-07-03T13:47:30.294Z,99682.34
2023-07-03T13:52:32.031Z,99677.00
2023-07-03T13:57:33.670Z,99677.34
2023-07-03T14:02:47.122Z,99678.50
2023-07-03T14:07:50.035Z,99678.03
2023-07-03T14:12:51.835Z,99682.88
2023-07-03T14:17:54.405Z,99692.56
2023-07-03T14:22:56.668Z,99693.56
2023-07-03T14:28:00.111Z,99698.25
2023-07-03T14:33:01.796Z,99690.75
2023-07-03T14:38:03.461Z,99698.31
2023-07-03T14:43:06.581Z,99688.25
2023-07-03T14:48:10.064Z,99691.81
2023-07-03T14:53:11.703Z,99694.16
2023-07-03T14:58:13.924Z,99697.25
2023-07-03T15:03:15.784Z,99693.41
2023-07-03T15:08:17.586Z,99699.09
2023-07-03T15:13:19.609Z,99693.00
2023-07-03T15:18:22.922Z,99688.69
2023-07-03T15:23:24.531Z,99693.16
2023-07-03T15:28:26.155Z,99693.72
2023-07-03T15:33:28.433Z,99702.75
2023-07-03T15:38:31.172Z,99691.19
2023-07-03T15:43:33.887Z,99696.78
2023-07-03T15:48:37.033Z,99703.25
2023-07-03T15:53:39.187Z,99708.91
2023-07-03T15:58:43.235Z,99708.91
2023-07-03T16:03:45.681Z,99712.81
2023-07-03T16:08:47.397Z,99723.13
2023-07-03T16:13:49.754Z,99725.88
2023-07-03T16:18:54.233Z,99734.22
2023-07-03T16:23:57.343Z,99735.22
2023-07-03T16:28:59.021Z,99737.03
2023-07-03T16:34:01.937Z,99738.22
2023-07-03T16:39:05.516Z,99742.56
2023-07-03T16:44:07.256Z,99748.03
2023-07-03T16:49:09.104Z,99754.25
2023-07-03T16:54:10.765Z,99741.69
2023-07-03T16:59:12.376Z,99746.88
2023-07-03T17:04:13.975Z,99749.00
2023-07-03T17:09:19.412Z,99741.22
2023-07-03T17:14:21.081Z,99737.81
2023-07-03T17:19:22.726Z,99740.13
2023-07-03T17:24:24.387Z,99736.34
2023-07-03T17:29:27.800Z,99738.78
2023-07-03T17:34:29.444Z,99732.69
2023-07-03T17:39:31.164Z,99733.16
2023-07-03T17:44:32.795Z,99746.22
2023-07-03T17:49:34.611Z,99737.94
2023-07-03T17:54:37.267Z,99735.78
2023-07-03T17:59:38.847Z,99729.16
2023-07-03T18:04:40.476Z,99726.34
2023-07-03T18:09:43.556Z,99731.78
2023-07-03T18:14:45.418Z,99732.31
2023-07-03T18:19:47.021Z,99728.38
2023-07-03T18:24:48.638Z,99728.63
2023-07-03T18:29:50.364Z,99730.44
2023-07-03T18:34:52.118Z,99737.16
2023-07-03T18:39:56.520Z,99739.56
2023-07-03T18:44:58.305Z,99739.13
2023-07-03T18:49:59.999Z,99749.19
2023-07-03T18:55:01.898Z,99745.59
2023-07-03T19:00:05.378Z,99753.72
2023-07-03T19:05:07.557Z,99757.56
2023-07-03T19:10:17.834Z,99761.34
2023-07-03T19:15:20.534Z,99764.69
2023-07-03T19:20:22.528Z,99763.38
2023-07-03T19:25:24.896Z,99772.97
2023-07-03T19:30:26.948Z,99772.19
2023-07-03T19:35:28.561Z,99769.75
2023-07-03T19:40:30.263Z,99768.09
2023-07-03T19:45:33.627Z,99781.47
2023-07-03T19:50:37.994Z,99779.22
2023-07-03T19:55:39.774Z,99788.47
2023-07-03T20:00:41.439Z,99794.19
2023-07-03T20:05:46.481Z,99796.72
2023-07-03T20:10:58.597Z,99792.69
2023-07-03T20:16:04.163Z,99797.88
2023-07-03T20:21:07.165Z,99791.34
2023-07-03T20:26:08.789Z,99803.28
2023-07-03T20:31:15.418Z,99796.88
2023-07-03T20:36:17.809Z,99789.16
2023-07-03T20:41:20.273Z,99794.09
2023-07-03T20:46:25.347Z,99789.28
2023-07-03T20:51:32.792Z,99795.56
2023-07-03T20:56:39.670Z,99800.25
2023-07-03T21:01:41.345Z,99802.06
2023-07-03T21:06:45.443Z,99794.03
2023-07-03T21:11:47.651Z,99787.94
2023-07-03T21:16:49.469Z,99793.25
2023-07-03T21:21:51.174Z,99790.28
2023-07-03T21:26:52.873Z,99795.75
2023-07-03T21:31:54.558Z,99800.72
2023-07-03T21:36:56.297Z,99792.72
2023-07-03T21:41:58.111Z,99797.41
2023-07-03T21:47:01.595Z,99797.25
2023-07-03T21:52:03.366Z,99799.69
2023-07-03T21:57:05.471Z,99799.72
2023-07-03T22:02:07.194Z,99798.16
2023-07-03T22:07:08.901Z,99799.81
2023-07-03T22:12:10.700Z,99797.81
2023-07-03T22:17:12.283Z,99801.59
2023-07-03T22:22:14.411Z,99799.47
2023-07-03T22:27:16.292Z,99805.31
2023-07-03T22:32:17.903Z,99806.44
2023-07-03T22:37:20.229Z,99814.63
2023-07-03T22:42:21.945Z,99810.47
2023-07-03T22:47:23.712Z,99807.03
2023-07-03T22:52:25.484Z,99823.06
2023-07-03T22:57:27.940Z,99818.75
2023-07-03T23:02:32.010Z,99809.38
2023-07-03T23:07:34.360Z,99815.97
2023-07-03T23:12:36.367Z,99813.59
2023-07-03T23:17:38.037Z,99812.94
2023-07-03T23:22:40.127Z,99817.81
2023-07-03T23:27:43.090Z,99816.78
2023-07-03T23:32:44.779Z,99818.28
2023-07-03T23:37:46.516Z,99815.84
2023-07-03T23:42:48.208Z,99808.50
2023-07-03T23:47:52.832Z,99807.03
2023-07-03T23:52:55.136Z,99815.81
2023-07-03T23:57:56.750Z,99812.88
